Terminal Aerodrome Forecast
Issued by NWS North Platte, NE

Home | Current Version | Previous Version | Text Only | Print | Product List | Glossary On
Versions: 1 2 3 4 5 6 7 8 9 10 11 12 13 14 15 16
240
FTUS43 KLBF 210520
TAFLBF
TAF
KLBF 210520Z 2106/2206 VRB02KT P6SM SKC
     FM211600 25008KT P6SM SKC
     FM211800 27013G20KT P6SM SKC
     FM212300 26008KT P6SM FEW250
     FM220300 VRB03KT P6SM FEW250=

USA.gov is the U.S. government's official web portal to all federal, state and local government web resources and services.